Swift Current, Canada
Current Conditions -  °F | °C
As of 5:07 PM on Wednesday 17 Dec 2014 (Local Time) from CYYN Reporting Station
Haze Haze  
Wind Chill:   Ceiling: 300
Heat Index: 19°   Visibility: 3mi
Dew Point: 19°   Wind: 17mph
Humidity: 100%   Direction: 180°S
Pressure: 29.9"   Gusts: 23mph
Location:  50.29°N, 107.8°W
Report Text: CYYN 172307Z AUTO 18015G20KT 3SM BR OVC003 M07/M07 A2990 RMK SLP171
Loading
Personal Weather Stations






























Interactive Weather Map New forecast layout! Learn more

10-Day Weather Forecast

Advertisements
Track Severe Weather on mobile